Joe Lochrico — WDJ3868 — position and weather

sailwx.info

Track history (hours):
 
Tides and Currents Weather Stations Pressure Air Temp Water Temp Dewpoint Dewpoint Depression Visibility Wind Speed Wind Dir Waves Ship Positions

Joe Lochrico

Owner: Kirby Inland Marine, LP, Houston, TX. More information available from US FCC via Universal Licensing System and Coast Guard Vessel Documentation Center.

Last reported at 2018-Feb-20 16:53 UTC. Time now 2018-Feb-20 17:03 UTC.
Position N 29°46' W 095°06'.

Length 27 m; draft 3 m.

Type: . MMSI: 367772180.

Date/timePositionNaut miles runAvg speedWind from/ knotsBaromVisibWave heightAir tempDewpointWater temp
2018-Feb-20 16:53N 29°46' W 095°06'0 0.2
2018-Feb-20 15:36N 29°46' W 095°05'1 0.6
2018-Feb-20 13:59N 29°46' W 095°04'0 0.0
2018-Feb-20 13:29N 29°46' W 095°04'0 0.0
2018-Feb-20 10:05N 29°46' W 095°04'0 2.4
2018-Feb-20 09:56N 29°46' W 095°05'1 0.9
2018-Feb-20 08:57N 29°46' W 095°06'0 0.0
2018-Feb-20 08:29N 29°46' W 095°06'0 0.9
2018-Feb-20 07:59N 29°45' W 095°06'1 2.3
2018-Feb-20 07:30N 29°46' W 095°05'1 2.2
2018-Feb-20 07:00N 29°47' W 095°04'0 0.2
2018-Feb-20 06:02N 29°47' W 095°04'0 3.6
2018-Feb-20 06:00N 29°47' W 095°04'1 2.2
2018-Feb-20 05:24N 29°46' W 095°04'0 0.0
2018-Feb-19 23:18N 29°46' W 095°04'0 0.0
2018-Feb-19 15:12N 29°46' W 095°04'0 0.0
2018-Feb-19 14:42N 29°46' W 095°04'0 0.0
2018-Feb-19 14:18N 29°46' W 095°04'0 0.0
2018-Feb-19 14:00N 29°46' W 095°04'0 0.0
2018-Feb-19 13:27N 29°46' W 095°04'0 0.0
2018-Feb-19 13:00N 29°46' W 095°04'0 0.0
2018-Feb-19 11:39N 29°46' W 095°04'0 0.0
2018-Feb-19 11:18N 29°46' W 095°04'0 0.0
2018-Feb-19 11:00N 29°46' W 095°04'0 0.0
2018-Feb-19 10:21N 29°46' W 095°04'0 0.3
2018-Feb-19 10:00N 29°46' W 095°04'0 0.2
2018-Feb-19 09:22N 29°46' W 095°04'0 0.0
2018-Feb-19 08:58N 29°46' W 095°04'0 0.0
2018-Feb-19 08:22N 29°46' W 095°04'0 0.0
2018-Feb-19 07:58N 29°46' W 095°04'0 0.0
2018-Feb-19 07:28N 29°46' W 095°04'0 0.0
2018-Feb-19 06:58N 29°46' W 095°04'0 0.0
2018-Feb-19 06:25N 29°46' W 095°04'0 0.0
2018-Feb-19 05:55N 29°46' W 095°04'0 0.0
2018-Feb-19 05:28N 29°46' W 095°04'0 0.0
2018-Feb-19 04:52N 29°46' W 095°04'0 0.0
2018-Feb-18 18:31N 29°46' W 095°04'0 0.0
2018-Feb-18 18:19N 29°46' W 095°04'0 0.0
2018-Feb-18 16:13N 29°46' W 095°04'0 0.0
2018-Feb-18 15:55N 29°46' W 095°04'0 0.0
2018-Feb-18 07:16N 29°46' W 095°04'0 0.0
2018-Feb-18 06:46N 29°46' W 095°04'0 0.0
2018-Feb-18 06:23N 29°46' W 095°04'0 0.0
2018-Feb-18 05:24N 29°46' W 095°04'0 0.0
2018-Feb-17 22:11N 29°46' W 095°04'0 1.5
2018-Feb-17 22:00N 29°46' W 095°04'2 1.3
2018-Feb-17 20:45N 29°47' W 095°04'1 4.8
2018-Feb-17 20:30N 29°46' W 095°05'3 5.6
2018-Feb-17 20:00N 29°44' W 095°03'3 5.5
2018-Feb-17 19:30N 29°42' W 095°00'3 5.8
2018-Feb-17 19:00N 29°40' W 094°58'3 6.7
2018-Feb-17 18:30N 29°37' W 094°57'3 6.8
2018-Feb-17 18:00N 29°34' W 094°55'3 6.8
2018-Feb-17 17:30N 29°31' W 094°53'3 6.7
2018-Feb-17 17:00N 29°28' W 094°51'7 0.7
2018-Feb-17 07:02N 29°26' W 094°43'0 0.0
2018-Feb-17 05:50N 29°26' W 094°43'0 0.0
2018-Feb-17 05:30N 29°26' W 094°43'0 0.0
2018-Feb-17 05:00N 29°26' W 094°43'0 0.0
2018-Feb-17 04:30N 29°26' W 094°43'0 0.0
2018-Feb-17 03:54N 29°26' W 094°43'0 0.0
2018-Feb-17 03:29N 29°26' W 094°43'0 0.0
2018-Feb-17 03:00N 29°26' W 094°43'0 0.0
2018-Feb-17 02:30N 29°26' W 094°43'0 0.6
2018-Feb-17 02:00N 29°26' W 094°43'3 5.4
2018-Feb-17 01:30N 29°28' W 094°40'3 5.3
2018-Feb-17 01:00N 29°29' W 094°37'3 5.1
2018-Feb-17 00:30N 29°30' W 094°35'2 4.5
2018-Feb-17 00:00N 29°30' W 094°32'2 4.4
2018-Feb-16 23:30N 29°31' W 094°30'3 5.8
2018-Feb-16 22:58N 29°34' W 094°28'3 5.4
2018-Feb-16 22:30N 29°34' W 094°25'3 4.9
2018-Feb-16 21:59N 29°36' W 094°23'3 6.0
2018-Feb-16 21:30N 29°37' W 094°20'3 6.1
2018-Feb-16 21:00N 29°39' W 094°17'3 5.8
2018-Feb-16 20:31N 29°40' W 094°14'3 6.0
2018-Feb-16 20:00N 29°41' W 094°10'3 5.8
2018-Feb-16 19:30N 29°43' W 094°08'3 5.8
2018-Feb-16 19:00N 29°45' W 094°05'3 5.7
2018-Feb-16 18:30N 29°46' W 094°02'3 5.7
2018-Feb-16 18:00N 29°48' W 094°00'3 5.2
2018-Feb-16 17:31N 29°50' W 093°57'4 7.5
2018-Feb-16 17:00N 29°53' W 093°55'4 8.0
2018-Feb-16 16:30N 29°56' W 093°52'3 5.3
2018-Feb-16 16:00N 29°58' W 093°51'0 0.1
2018-Feb-16 15:30N 29°58' W 093°51'1 1.2
2018-Feb-16 15:00N 29°58' W 093°52'0 0.0
2018-Feb-16 14:30N 29°58' W 093°52'0 0.0
2018-Feb-16 14:00N 29°58' W 093°52'0 0.0
2018-Feb-16 13:27N 29°58' W 093°52'0 0.0
2018-Feb-16 13:00N 29°58' W 093°52'0 0.0
2018-Feb-16 12:30N 29°58' W 093°52'0 0.0
2018-Feb-16 12:00N 29°58' W 093°52'0 0.0
2018-Feb-16 11:30N 29°58' W 093°52'0 0.0
2018-Feb-16 11:00N 29°58' W 093°52'0 0.0
2018-Feb-16 10:30N 29°58' W 093°52'0 0.0
2018-Feb-16 10:00N 29°58' W 093°52'0 0.0
2018-Feb-16 09:30N 29°58' W 093°52'0 0.0
2018-Feb-16 09:00N 29°58' W 093°52'0 0.0
2018-Feb-16 08:30N 29°58' W 093°52'0 0.0
2018-Feb-16 08:00N 29°58' W 093°52'0 0.0
2018-Feb-16 07:30N 29°58' W 093°52'0 0.0
2018-Feb-16 07:00N 29°58' W 093°52'0 0.0
2018-Feb-16 06:30N 29°58' W 093°52'0 0.0
2018-Feb-16 06:00N 29°58' W 093°52'0 0.0
2018-Feb-16 05:30N 29°58' W 093°52'0 0.0
2018-Feb-16 05:00N 29°58' W 093°52'0 0.0
2018-Feb-16 04:30N 29°58' W 093°52'0 0.0
2018-Feb-16 03:59N 29°58' W 093°52'0 0.0
2018-Feb-16 03:30N 29°58' W 093°52'0 0.0
2018-Feb-16 03:00N 29°58' W 093°52'1 1.7
2018-Feb-16 02:30N 29°59' W 093°52'2 4.4
2018-Feb-16 01:59N 29°60' W 093°55'0 0.0
2018-Feb-16 01:31N 29°60' W 093°55'2 3.4
2018-Feb-16 01:00N 29°59' W 093°53'3 6.0
2018-Feb-16 00:30N 29°56' W 093°52'4 8.5
2018-Feb-16 00:00N 29°53' W 093°55'4 8.0
2018-Feb-15 23:31N 29°49' W 093°58'1 2.6
2018-Feb-15 23:00N 29°50' W 093°59'0 0.6
2018-Feb-15 22:30N 29°50' W 093°59'0 0.1
2018-Feb-15 21:58N 29°50' W 093°59'0 0.0
2018-Feb-15 21:28N 29°50' W 093°59'0 0.0
2018-Feb-15 20:58N 29°50' W 093°59'0 0.0
2018-Feb-15 20:28N 29°50' W 093°59'0 0.0
2018-Feb-15 19:58N 29°50' W 093°59'0 0.1
2018-Feb-15 19:28N 29°50' W 093°59'0 0.0
2018-Feb-15 18:58N 29°50' W 093°59'0 0.0
2018-Feb-15 18:30N 29°50' W 093°59'0 0.0
2018-Feb-15 17:59N 29°50' W 093°59'0 0.1
2018-Feb-15 17:30N 29°50' W 093°59'0 0.0
2018-Feb-15 17:00N 29°50' W 093°59'1 2.7
2018-Feb-15 16:30N 29°51' W 093°59'1 1.1
2018-Feb-15 16:00N 29°52' W 093°60'0 0.0
2018-Feb-15 15:30N 29°52' W 093°60'0 0.0
2018-Feb-15 15:00N 29°52' W 093°60'0 0.0
2018-Feb-15 14:30N 29°52' W 093°60'0 0.0
2018-Feb-15 14:00N 29°52' W 093°60'0 0.0
2018-Feb-15 13:30N 29°52' W 093°60'0 0.0
2018-Feb-15 13:00N 29°52' W 093°60'0 0.0
2018-Feb-15 12:30N 29°52' W 093°60'0 0.0
2018-Feb-15 12:00N 29°52' W 093°60'0 0.0
2018-Feb-15 11:30N 29°52' W 093°60'0 0.0
2018-Feb-15 11:00N 29°52' W 093°60'0 0.0
2018-Feb-15 10:30N 29°52' W 093°60'0 0.0
2018-Feb-15 10:00N 29°52' W 093°60'0 0.0
2018-Feb-15 09:30N 29°52' W 093°60'0 0.0
2018-Feb-15 09:00N 29°52' W 093°60'0 0.0
2018-Feb-15 08:30N 29°52' W 093°60'0 0.0
2018-Feb-15 08:00N 29°52' W 093°60'0 0.0
2018-Feb-15 07:30N 29°52' W 093°60'0 0.0
2018-Feb-15 07:00N 29°52' W 093°60'0 0.0
2018-Feb-15 06:30N 29°52' W 093°60'0 0.0
2018-Feb-15 06:00N 29°52' W 093°60'0 0.0
2018-Feb-15 05:30N 29°52' W 093°60'0 0.0
2018-Feb-15 05:00N 29°52' W 093°60'0 0.0
2018-Feb-15 04:30N 29°52' W 093°60'0 0.0
2018-Feb-15 04:00N 29°52' W 093°60'0 0.0
2018-Feb-15 03:30N 29°52' W 093°60'0 0.0
2018-Feb-15 03:00N 29°52' W 093°60'0 0.0
2018-Feb-15 02:30N 29°52' W 093°60'0 0.0
2018-Feb-15 02:00N 29°52' W 093°60'0 0.0
2018-Feb-15 01:30N 29°52' W 093°60'0 0.0
2018-Feb-15 01:00N 29°52' W 093°60'0 0.0
2018-Feb-15 00:30N 29°52' W 093°60'1 1.1
2018-Feb-15 00:00N 29°51' W 093°59'1 2.8
2018-Feb-14 23:30N 29°50' W 093°59'2 3.1
2018-Feb-14 23:00N 29°52' W 093°59'0 0.8
2018-Feb-14 22:30N 29°51' W 093°59'1 3.0
2018-Feb-14 22:00N 29°50' W 093°59'1 2.7
2018-Feb-14 21:30N 29°51' W 093°59'1 1.2
2018-Feb-14 21:00N 29°52' W 093°60'0 0.1
2018-Feb-14 20:30N 29°52' W 093°60'0 0.0
2018-Feb-14 20:00N 29°52' W 093°60'0 0.0
2018-Feb-14 19:30N 29°52' W 093°60'0 0.0
2018-Feb-14 19:00N 29°52' W 093°60'0 0.0
2018-Feb-14 18:27N 29°52' W 093°60'0 0.0
2018-Feb-14 18:00N 29°52' W 093°60'0 0.0
2018-Feb-14 17:30N 29°52' W 093°60'0 0.0
2018-Feb-14 17:00N 29°52' W 093°60'0 0.0
2018-Feb-14 16:30N 29°52' W 093°60'0 0.0
2018-Feb-14 16:00N 29°52' W 093°60'0 0.0
2018-Feb-14 15:30N 29°52' W 093°60'0 0.0
2018-Feb-14 15:00N 29°52' W 093°60'0 0.0
2018-Feb-14 14:30N 29°52' W 093°60'0 0.0
2018-Feb-14 14:00N 29°52' W 093°60'0 0.0
2018-Feb-14 13:30N 29°52' W 093°60'0 0.0
2018-Feb-14 13:00N 29°52' W 093°60'0 0.0
2018-Feb-14 12:30N 29°52' W 093°60'0 0.0
2018-Feb-14 12:00N 29°52' W 093°60'0 0.0
2018-Feb-14 11:30N 29°52' W 093°60'0 0.0
2018-Feb-14 11:00N 29°52' W 093°60'0 0.0
2018-Feb-14 10:30N 29°52' W 093°60'0 0.0
2018-Feb-14 10:00N 29°52' W 093°60'0 0.0
2018-Feb-14 09:30N 29°52' W 093°60'0 0.0
2018-Feb-14 09:00N 29°52' W 093°60'0 0.0
2018-Feb-14 08:30N 29°52' W 093°60'0 0.0
2018-Feb-14 08:00N 29°52' W 093°60'0 0.0
2018-Feb-14 07:30N 29°52' W 093°60'0 0.1
2018-Feb-14 07:00N 29°52' W 093°59'0 0.1
2018-Feb-14 06:30N 29°52' W 093°60'0 0.0
2018-Feb-14 06:01N 29°52' W 093°60'0 0.1
2018-Feb-14 05:30N 29°52' W 093°60'0 0.0
2018-Feb-14 05:00N 29°52' W 093°60'0 0.0
2018-Feb-14 04:30N 29°52' W 093°60'0 0.0
2018-Feb-14 04:00N 29°52' W 093°60'0 0.0
2018-Feb-14 03:30N 29°52' W 093°60'0 0.0
2018-Feb-14 03:00N 29°52' W 093°60'0 0.0
2018-Feb-14 02:30N 29°52' W 093°60'0 0.0
2018-Feb-14 02:00N 29°52' W 093°60'0 0.0
2018-Feb-14 01:30N 29°52' W 093°60'0 0.0
2018-Feb-14 01:00N 29°52' W 093°60'0 0.0
2018-Feb-14 00:30N 29°52' W 093°60'0 0.0
2018-Feb-14 00:00N 29°52' W 093°60'0 0.0
2018-Feb-13 23:30N 29°52' W 093°60'0 0.0
2018-Feb-13 23:00N 29°52' W 093°60'0 0.0
2018-Feb-13 22:30N 29°52' W 093°60'0 0.0
2018-Feb-13 22:00N 29°52' W 093°60'0 0.0
2018-Feb-13 21:30N 29°52' W 093°60'0 0.0
2018-Feb-13 21:00N 29°52' W 093°60'0 0.0
2018-Feb-13 20:30N 29°52' W 093°60'0 0.0
2018-Feb-13 20:00N 29°52' W 093°60'0 0.0
2018-Feb-13 19:31N 29°52' W 093°60'0 0.0
2018-Feb-13 19:00N 29°52' W 093°60'0 0.0
2018-Feb-13 18:30N 29°52' W 093°60'0 0.0
2018-Feb-13 18:00N 29°52' W 093°60'0 0.0
2018-Feb-13 17:30N 29°52' W 093°60'0 0.0
2018-Feb-13 17:00N 29°52' W 093°60'0 0.0
2018-Feb-13 16:31N 29°52' W 093°60'0 0.1
2018-Feb-13 16:00N 29°52' W 093°59'1 2.2
2018-Feb-13 15:30N 29°51' W 093°59'1 2.6
2018-Feb-13 15:00N 29°49' W 093°59'0 0.6
2018-Feb-13 14:30N 29°49' W 093°59'2 3.0
2018-Feb-13 14:00N 29°50' W 093°58'1 2.8
2018-Feb-13 13:31N 29°50' W 093°59'2 3.8
2018-Feb-13 13:00N 29°52' W 093°59'0 0.2
2018-Feb-13 12:30N 29°52' W 093°60'0 0.0
2018-Feb-13 12:00N 29°52' W 093°60'0 0.1
2018-Feb-13 11:31N 29°52' W 093°59'1 2.3
2018-Feb-13 11:00N 29°51' W 093°59'2 3.1
2018-Feb-13 10:30N 29°49' W 093°59'0 0.1
2018-Feb-13 10:00N 29°49' W 093°59'0 0.3
2018-Feb-13 09:30N 29°49' W 093°59'1 2.7
2018-Feb-13 09:00N 29°48' W 094°00'2 4.6
2018-Feb-13 08:30N 29°46' W 094°02'2 4.5
2018-Feb-13 08:00N 29°45' W 094°04'2 4.5
2018-Feb-13 07:30N 29°44' W 094°06'2 4.3
2018-Feb-13 07:00N 29°42' W 094°08'1 2.9
2018-Feb-13 06:30N 29°41' W 094°10'1 2.9
2018-Feb-13 06:00N 29°41' W 094°11'2 3.8
2018-Feb-13 05:30N 29°40' W 094°13'2 4.4
2018-Feb-13 05:00N 29°39' W 094°16'2 4.2
2018-Feb-13 04:30N 29°38' W 094°18'3 4.2
2018-Feb-13 03:53N 29°37' W 094°20'2 4.0
2018-Feb-13 03:30N 29°36' W 094°22'4 3.0
2018-Feb-13 02:13N 29°34' W 094°25'24 3.0
2018-Feb-12 18:20N 29°30' W 094°52'2 6.6
2018-Feb-12 18:00N 29°32' W 094°54'3 6.7
2018-Feb-12 17:30N 29°35' W 094°56'3 6.7
2018-Feb-12 17:00N 29°38' W 094°58'3 6.4
2018-Feb-12 16:30N 29°41' W 094°59'4 6.7
2018-Feb-12 15:58N 29°44' W 095°01'4 2.7
2018-Feb-12 14:23N 29°47' W 095°05'0 0.0
2018-Feb-12 13:12N 29°47' W 095°05'0 0.0
2018-Feb-12 12:58N 29°47' W 095°05'0 0.0
2018-Feb-12 12:28N 29°47' W 095°05'1 0.0
2018-Feb-11 00:43N 29°46' W 095°05'  
Track history (hours):
 
Tides and Currents Weather Stations Pressure Air Temp Water Temp Dewpoint Dewpoint Depression Visibility Wind Speed Wind Dir Waves Ship Positions

Joe Lochrico

Owner: Kirby Inland Marine, LP, Houston, TX. More information available from US FCC via Universal Licensing System and Coast Guard Vessel Documentation Center.

Last reported at 2018-Feb-20 16:53 UTC. Time now 2018-Feb-20 17:03 UTC.
Position N 29°46' W 095°06'.

Length 27 m; draft 3 m.

Type: . MMSI: 367772180.

Date/timePositionNaut miles runAvg speedWind from/ knotsBaromVisibWave heightAir tempDewpointWater temp
2018-Feb-20 16:53N 29°46' W 095°06'0 0.2
2018-Feb-20 15:36N 29°46' W 095°05'1 0.6
2018-Feb-20 13:59N 29°46' W 095°04'0 0.0
2018-Feb-20 13:29N 29°46' W 095°04'0 0.0
2018-Feb-20 10:05N 29°46' W 095°04'0 2.4
2018-Feb-20 09:56N 29°46' W 095°05'1 0.9
2018-Feb-20 08:57N 29°46' W 095°06'0 0.0
2018-Feb-20 08:29N 29°46' W 095°06'0 0.9
2018-Feb-20 07:59N 29°45' W 095°06'1 2.3
2018-Feb-20 07:30N 29°46' W 095°05'1 2.2
2018-Feb-20 07:00N 29°47' W 095°04'0 0.2
2018-Feb-20 06:02N 29°47' W 095°04'0 3.6
2018-Feb-20 06:00N 29°47' W 095°04'1 2.2
2018-Feb-20 05:24N 29°46' W 095°04'0 0.0
2018-Feb-19 23:18N 29°46' W 095°04'0 0.0
2018-Feb-19 15:12N 29°46' W 095°04'0 0.0
2018-Feb-19 14:42N 29°46' W 095°04'0 0.0
2018-Feb-19 14:18N 29°46' W 095°04'0 0.0
2018-Feb-19 14:00N 29°46' W 095°04'0 0.0
2018-Feb-19 13:27N 29°46' W 095°04'0 0.0
2018-Feb-19 13:00N 29°46' W 095°04'0 0.0
2018-Feb-19 11:39N 29°46' W 095°04'0 0.0
2018-Feb-19 11:18N 29°46' W 095°04'0 0.0
2018-Feb-19 11:00N 29°46' W 095°04'0 0.0
2018-Feb-19 10:21N 29°46' W 095°04'0 0.3
2018-Feb-19 10:00N 29°46' W 095°04'0 0.2
2018-Feb-19 09:22N 29°46' W 095°04'0 0.0
2018-Feb-19 08:58N 29°46' W 095°04'0 0.0
2018-Feb-19 08:22N 29°46' W 095°04'0 0.0
2018-Feb-19 07:58N 29°46' W 095°04'0 0.0
2018-Feb-19 07:28N 29°46' W 095°04'0 0.0
2018-Feb-19 06:58N 29°46' W 095°04'0 0.0
2018-Feb-19 06:25N 29°46' W 095°04'0 0.0
2018-Feb-19 05:55N 29°46' W 095°04'0 0.0
2018-Feb-19 05:28N 29°46' W 095°04'0 0.0
2018-Feb-19 04:52N 29°46' W 095°04'0 0.0
2018-Feb-18 18:31N 29°46' W 095°04'0 0.0
2018-Feb-18 18:19N 29°46' W 095°04'0 0.0
2018-Feb-18 16:13N 29°46' W 095°04'0 0.0
2018-Feb-18 15:55N 29°46' W 095°04'0 0.0
2018-Feb-18 07:16N 29°46' W 095°04'0 0.0
2018-Feb-18 06:46N 29°46' W 095°04'0 0.0
2018-Feb-18 06:23N 29°46' W 095°04'0 0.0
2018-Feb-18 05:24N 29°46' W 095°04'0 0.0
2018-Feb-17 22:11N 29°46' W 095°04'0 1.5
2018-Feb-17 22:00N 29°46' W 095°04'2 1.3
2018-Feb-17 20:45N 29°47' W 095°04'1 4.8
2018-Feb-17 20:30N 29°46' W 095°05'3 5.6
2018-Feb-17 20:00N 29°44' W 095°03'3 5.5
2018-Feb-17 19:30N 29°42' W 095°00'3 5.8
2018-Feb-17 19:00N 29°40' W 094°58'3 6.7
2018-Feb-17 18:30N 29°37' W 094°57'3 6.8
2018-Feb-17 18:00N 29°34' W 094°55'3 6.8
2018-Feb-17 17:30N 29°31' W 094°53'3 6.7
2018-Feb-17 17:00N 29°28' W 094°51'7 0.7
2018-Feb-17 07:02N 29°26' W 094°43'0 0.0
2018-Feb-17 05:50N 29°26' W 094°43'0 0.0
2018-Feb-17 05:30N 29°26' W 094°43'0 0.0
2018-Feb-17 05:00N 29°26' W 094°43'0 0.0
2018-Feb-17 04:30N 29°26' W 094°43'0 0.0
2018-Feb-17 03:54N 29°26' W 094°43'0 0.0
2018-Feb-17 03:29N 29°26' W 094°43'0 0.0
2018-Feb-17 03:00N 29°26' W 094°43'0 0.0
2018-Feb-17 02:30N 29°26' W 094°43'0 0.6
2018-Feb-17 02:00N 29°26' W 094°43'3 5.4
2018-Feb-17 01:30N 29°28' W 094°40'3 5.3
2018-Feb-17 01:00N 29°29' W 094°37'3 5.1
2018-Feb-17 00:30N 29°30' W 094°35'2 4.5
2018-Feb-17 00:00N 29°30' W 094°32'2 4.4
2018-Feb-16 23:30N 29°31' W 094°30'3 5.8
2018-Feb-16 22:58N 29°34' W 094°28'3 5.4
2018-Feb-16 22:30N 29°34' W 094°25'3 4.9
2018-Feb-16 21:59N 29°36' W 094°23'3 6.0
2018-Feb-16 21:30N 29°37' W 094°20'3 6.1
2018-Feb-16 21:00N 29°39' W 094°17'3 5.8
2018-Feb-16 20:31N 29°40' W 094°14'3 6.0
2018-Feb-16 20:00N 29°41' W 094°10'3 5.8
2018-Feb-16 19:30N 29°43' W 094°08'3 5.8
2018-Feb-16 19:00N 29°45' W 094°05'3 5.7
2018-Feb-16 18:30N 29°46' W 094°02'3 5.7
2018-Feb-16 18:00N 29°48' W 094°00'3 5.2
2018-Feb-16 17:31N 29°50' W 093°57'4 7.5
2018-Feb-16 17:00N 29°53' W 093°55'4 8.0
2018-Feb-16 16:30N 29°56' W 093°52'3 5.3
2018-Feb-16 16:00N 29°58' W 093°51'0 0.1
2018-Feb-16 15:30N 29°58' W 093°51'1 1.2
2018-Feb-16 15:00N 29°58' W 093°52'0 0.0
2018-Feb-16 14:30N 29°58' W 093°52'0 0.0
2018-Feb-16 14:00N 29°58' W 093°52'0 0.0
2018-Feb-16 13:27N 29°58' W 093°52'0 0.0
2018-Feb-16 13:00N 29°58' W 093°52'0 0.0
2018-Feb-16 12:30N 29°58' W 093°52'0 0.0
2018-Feb-16 12:00N 29°58' W 093°52'0 0.0
2018-Feb-16 11:30N 29°58' W 093°52'0 0.0
2018-Feb-16 11:00N 29°58' W 093°52'0 0.0
2018-Feb-16 10:30N 29°58' W 093°52'0 0.0
2018-Feb-16 10:00N 29°58' W 093°52'0 0.0
2018-Feb-16 09:30N 29°58' W 093°52'0 0.0
2018-Feb-16 09:00N 29°58' W 093°52'0 0.0
2018-Feb-16 08:30N 29°58' W 093°52'0 0.0
2018-Feb-16 08:00N 29°58' W 093°52'0 0.0
2018-Feb-16 07:30N 29°58' W 093°52'0 0.0
2018-Feb-16 07:00N 29°58' W 093°52'0 0.0
2018-Feb-16 06:30N 29°58' W 093°52'0 0.0
2018-Feb-16 06:00N 29°58' W 093°52'0 0.0
2018-Feb-16 05:30N 29°58' W 093°52'0 0.0
2018-Feb-16 05:00N 29°58' W 093°52'0 0.0
2018-Feb-16 04:30N 29°58' W 093°52'0 0.0
2018-Feb-16 03:59N 29°58' W 093°52'0 0.0
2018-Feb-16 03:30N 29°58' W 093°52'0 0.0
2018-Feb-16 03:00N 29°58' W 093°52'1 1.7
2018-Feb-16 02:30N 29°59' W 093°52'2 4.4
2018-Feb-16 01:59N 29°60' W 093°55'0 0.0
2018-Feb-16 01:31N 29°60' W 093°55'2 3.4
2018-Feb-16 01:00N 29°59' W 093°53'3 6.0
2018-Feb-16 00:30N 29°56' W 093°52'4 8.5
2018-Feb-16 00:00N 29°53' W 093°55'4 8.0
2018-Feb-15 23:31N 29°49' W 093°58'1 2.6
2018-Feb-15 23:00N 29°50' W 093°59'0 0.6
2018-Feb-15 22:30N 29°50' W 093°59'0 0.1
2018-Feb-15 21:58N 29°50' W 093°59'0 0.0
2018-Feb-15 21:28N 29°50' W 093°59'0 0.0
2018-Feb-15 20:58N 29°50' W 093°59'0 0.0
2018-Feb-15 20:28N 29°50' W 093°59'0 0.0
2018-Feb-15 19:58N 29°50' W 093°59'0 0.1
2018-Feb-15 19:28N 29°50' W 093°59'0 0.0
2018-Feb-15 18:58N 29°50' W 093°59'0 0.0
2018-Feb-15 18:30N 29°50' W 093°59'0 0.0
2018-Feb-15 17:59N 29°50' W 093°59'0 0.1
2018-Feb-15 17:30N 29°50' W 093°59'0 0.0
2018-Feb-15 17:00N 29°50' W 093°59'1 2.7
2018-Feb-15 16:30N 29°51' W 093°59'1 1.1
2018-Feb-15 16:00N 29°52' W 093°60'0 0.0
2018-Feb-15 15:30N 29°52' W 093°60'0 0.0
2018-Feb-15 15:00N 29°52' W 093°60'0 0.0
2018-Feb-15 14:30N 29°52' W 093°60'0 0.0
2018-Feb-15 14:00N 29°52' W 093°60'0 0.0
2018-Feb-15 13:30N 29°52' W 093°60'0 0.0
2018-Feb-15 13:00N 29°52' W 093°60'0 0.0
2018-Feb-15 12:30N 29°52' W 093°60'0 0.0
2018-Feb-15 12:00N 29°52' W 093°60'0 0.0
2018-Feb-15 11:30N 29°52' W 093°60'0 0.0
2018-Feb-15 11:00N 29°52' W 093°60'0 0.0
2018-Feb-15 10:30N 29°52' W 093°60'0 0.0
2018-Feb-15 10:00N 29°52' W 093°60'0 0.0
2018-Feb-15 09:30N 29°52' W 093°60'0 0.0
2018-Feb-15 09:00N 29°52' W 093°60'0 0.0
2018-Feb-15 08:30N 29°52' W 093°60'0 0.0
2018-Feb-15 08:00N 29°52' W 093°60'0 0.0
2018-Feb-15 07:30N 29°52' W 093°60'0 0.0
2018-Feb-15 07:00N 29°52' W 093°60'0 0.0
2018-Feb-15 06:30N 29°52' W 093°60'0 0.0
2018-Feb-15 06:00N 29°52' W 093°60'0 0.0
2018-Feb-15 05:30N 29°52' W 093°60'0 0.0
2018-Feb-15 05:00N 29°52' W 093°60'0 0.0
2018-Feb-15 04:30N 29°52' W 093°60'0 0.0
2018-Feb-15 04:00N 29°52' W 093°60'0 0.0
2018-Feb-15 03:30N 29°52' W 093°60'0 0.0
2018-Feb-15 03:00N 29°52' W 093°60'0 0.0
2018-Feb-15 02:30N 29°52' W 093°60'0 0.0
2018-Feb-15 02:00N 29°52' W 093°60'0 0.0
2018-Feb-15 01:30N 29°52' W 093°60'0 0.0
2018-Feb-15 01:00N 29°52' W 093°60'0 0.0
2018-Feb-15 00:30N 29°52' W 093°60'1 1.1
2018-Feb-15 00:00N 29°51' W 093°59'1 2.8
2018-Feb-14 23:30N 29°50' W 093°59'2 3.1
2018-Feb-14 23:00N 29°52' W 093°59'0 0.8
2018-Feb-14 22:30N 29°51' W 093°59'1 3.0
2018-Feb-14 22:00N 29°50' W 093°59'1 2.7
2018-Feb-14 21:30N 29°51' W 093°59'1 1.2
2018-Feb-14 21:00N 29°52' W 093°60'0 0.1
2018-Feb-14 20:30N 29°52' W 093°60'0 0.0
2018-Feb-14 20:00N 29°52' W 093°60'0 0.0
2018-Feb-14 19:30N 29°52' W 093°60'0 0.0
2018-Feb-14 19:00N 29°52' W 093°60'0 0.0
2018-Feb-14 18:27N 29°52' W 093°60'0 0.0
2018-Feb-14 18:00N 29°52' W 093°60'0 0.0
2018-Feb-14 17:30N 29°52' W 093°60'0 0.0
2018-Feb-14 17:00N 29°52' W 093°60'0 0.0
2018-Feb-14 16:30N 29°52' W 093°60'0 0.0
2018-Feb-14 16:00N 29°52' W 093°60'0 0.0
2018-Feb-14 15:30N 29°52' W 093°60'0 0.0
2018-Feb-14 15:00N 29°52' W 093°60'0 0.0
2018-Feb-14 14:30N 29°52' W 093°60'0 0.0
2018-Feb-14 14:00N 29°52' W 093°60'0 0.0
2018-Feb-14 13:30N 29°52' W 093°60'0 0.0
2018-Feb-14 13:00N 29°52' W 093°60'0 0.0
2018-Feb-14 12:30N 29°52' W 093°60'0 0.0
2018-Feb-14 12:00N 29°52' W 093°60'0 0.0
2018-Feb-14 11:30N 29°52' W 093°60'0 0.0
2018-Feb-14 11:00N 29°52' W 093°60'0 0.0
2018-Feb-14 10:30N 29°52' W 093°60'0 0.0
2018-Feb-14 10:00N 29°52' W 093°60'0 0.0
2018-Feb-14 09:30N 29°52' W 093°60'0 0.0
2018-Feb-14 09:00N 29°52' W 093°60'0 0.0
2018-Feb-14 08:30N 29°52' W 093°60'0 0.0
2018-Feb-14 08:00N 29°52' W 093°60'0 0.0
2018-Feb-14 07:30N 29°52' W 093°60'0 0.1
2018-Feb-14 07:00N 29°52' W 093°59'0 0.1
2018-Feb-14 06:30N 29°52' W 093°60'0 0.0
2018-Feb-14 06:01N 29°52' W 093°60'0 0.1
2018-Feb-14 05:30N 29°52' W 093°60'0 0.0
2018-Feb-14 05:00N 29°52' W 093°60'0 0.0
2018-Feb-14 04:30N 29°52' W 093°60'0 0.0
2018-Feb-14 04:00N 29°52' W 093°60'0 0.0
2018-Feb-14 03:30N 29°52' W 093°60'0 0.0
2018-Feb-14 03:00N 29°52' W 093°60'0 0.0
2018-Feb-14 02:30N 29°52' W 093°60'0 0.0
2018-Feb-14 02:00N 29°52' W 093°60'0 0.0
2018-Feb-14 01:30N 29°52' W 093°60'0 0.0
2018-Feb-14 01:00N 29°52' W 093°60'0 0.0
2018-Feb-14 00:30N 29°52' W 093°60'0 0.0
2018-Feb-14 00:00N 29°52' W 093°60'0 0.0
2018-Feb-13 23:30N 29°52' W 093°60'0 0.0
2018-Feb-13 23:00N 29°52' W 093°60'0 0.0
2018-Feb-13 22:30N 29°52' W 093°60'0 0.0
2018-Feb-13 22:00N 29°52' W 093°60'0 0.0
2018-Feb-13 21:30N 29°52' W 093°60'0 0.0
2018-Feb-13 21:00N 29°52' W 093°60'0 0.0
2018-Feb-13 20:30N 29°52' W 093°60'0 0.0
2018-Feb-13 20:00N 29°52' W 093°60'0 0.0
2018-Feb-13 19:31N 29°52' W 093°60'0 0.0
2018-Feb-13 19:00N 29°52' W 093°60'0 0.0
2018-Feb-13 18:30N 29°52' W 093°60'0 0.0
2018-Feb-13 18:00N 29°52' W 093°60'0 0.0
2018-Feb-13 17:30N 29°52' W 093°60'0 0.0
2018-Feb-13 17:00N 29°52' W 093°60'0 0.0
2018-Feb-13 16:31N 29°52' W 093°60'0 0.1
2018-Feb-13 16:00N 29°52' W 093°59'1 2.2
2018-Feb-13 15:30N 29°51' W 093°59'1 2.6
2018-Feb-13 15:00N 29°49' W 093°59'0 0.6
2018-Feb-13 14:30N 29°49' W 093°59'2 3.0
2018-Feb-13 14:00N 29°50' W 093°58'1 2.8
2018-Feb-13 13:31N 29°50' W 093°59'2 3.8
2018-Feb-13 13:00N 29°52' W 093°59'0 0.2
2018-Feb-13 12:30N 29°52' W 093°60'0 0.0
2018-Feb-13 12:00N 29°52' W 093°60'0 0.1
2018-Feb-13 11:31N 29°52' W 093°59'1 2.3
2018-Feb-13 11:00N 29°51' W 093°59'2 3.1
2018-Feb-13 10:30N 29°49' W 093°59'0 0.1
2018-Feb-13 10:00N 29°49' W 093°59'0 0.3
2018-Feb-13 09:30N 29°49' W 093°59'1 2.7
2018-Feb-13 09:00N 29°48' W 094°00'2 4.6
2018-Feb-13 08:30N 29°46' W 094°02'2 4.5
2018-Feb-13 08:00N 29°45' W 094°04'2 4.5
2018-Feb-13 07:30N 29°44' W 094°06'2 4.3
2018-Feb-13 07:00N 29°42' W 094°08'1 2.9
2018-Feb-13 06:30N 29°41' W 094°10'1 2.9
2018-Feb-13 06:00N 29°41' W 094°11'2 3.8
2018-Feb-13 05:30N 29°40' W 094°13'2 4.4
2018-Feb-13 05:00N 29°39' W 094°16'2 4.2
2018-Feb-13 04:30N 29°38' W 094°18'3 4.2
2018-Feb-13 03:53N 29°37' W 094°20'2 4.0
2018-Feb-13 03:30N 29°36' W 094°22'4 3.0
2018-Feb-13 02:13N 29°34' W 094°25'24 3.0
2018-Feb-12 18:20N 29°30' W 094°52'2 6.6
2018-Feb-12 18:00N 29°32' W 094°54'3 6.7
2018-Feb-12 17:30N 29°35' W 094°56'3 6.7
2018-Feb-12 17:00N 29°38' W 094°58'3 6.4
2018-Feb-12 16:30N 29°41' W 094°59'4 6.7
2018-Feb-12 15:58N 29°44' W 095°01'4 2.7
2018-Feb-12 14:23N 29°47' W 095°05'0 0.0
2018-Feb-12 13:12N 29°47' W 095°05'0 0.0
2018-Feb-12 12:58N 29°47' W 095°05'0 0.0
2018-Feb-12 12:28N 29°47' W 095°05'1 0.0
2018-Feb-11 00:43N 29°46' W 095°05'  

Dump ship's entire track history